Time;durP1;ratioP1;P1;durP2;ratioP2;P2;SDS_P1;SDS_P2;PMS_P1;PMS_P2;Temp;Humidity;BMP_temperature;BMP_pressure;BME280_temperature;BME280_humidity;BME280_pressure;Samples;Min_cycle;Max_cycle;Signal;HPM_P1;HPM_P2
2022/02/01 00:01:19;;;;;;;;;;;;;;;-0.37;100.00;95464.75;1031135;28;20740;-67
2022/02/01 00:01:56;;;;;;;;;;;;;;;-0.40;100.00;95465.13;1031014;28;19993;-67
2022/02/01 00:02:40;;;;;;;;;;;;;;;-0.44;100.00;95458.78;1026692;28;20008;-64
2022/02/01 00:03:12;;;;;;;;;;;;;;;-0.42;100.00;95464.53;1027050;28;19969;-67
2022/02/01 00:03:46;;;;;;;;;;;;;;;-0.42;100.00;95461.97;1023006;29;19975;-66
2022/02/01 00:04:35;;;;;;;;;;;;;;;-0.42;100.00;95464.53;1016890;29;19922;-66
2022/02/01 00:06:13;;;;;;;;;;;;;;;-0.42;100.00;95461.16;1018951;29;19923;-66
2022/02/01 00:07:06;;;;;;;;;;;;;;;-0.41;100.00;95471.25;1022554;29;19919;-66
2022/02/01 00:07:47;;;;;;;;;;;;;;;-0.46;100.00;95460.78;1019261;29;20013;-67
2022/02/01 00:11:05;;;;;;;;;;;;;;;-0.50;100.00;95472.47;1014959;29;20007;-66
2022/02/01 00:12:47;;;;;;;;;;;;;;;-0.53;100.00;95476.25;1014685;29;20021;-66
2022/02/01 00:15:14;;;;;;;;;;;;;;;-0.55;100.00;95469.69;1035382;28;19914;-67
2022/02/01 00:16:06;;;;;;;;;;;;;;;-0.55;100.00;95478.22;1032264;28;20009;-67
2022/02/01 00:17:50;;;;;;;;;;;;;;;-0.58;100.00;95463.16;1022685;28;19918;-67
2022/02/01 00:18:37;;;;;;;;;;;;;;;-0.54;100.00;95468.69;1018847;29;20486;-67
2022/02/01 00:20:23;;;;;;;;;;;;;;;-0.57;100.00;95456.22;1035284;28;19922;-67
2022/02/01 00:34:35;;;;;;;;;;;;;;;-0.34;100.00;95484.94;1035781;28;19924;-65
2022/02/01 00:35:46;;;;;;;;;;;;;;;-0.36;100.00;95492.09;1031883;28;19975;-65
2022/02/01 00:36:54;;;;;;;;;;;;;;;-0.38;100.00;95494.06;1035735;28;19999;-65
2022/02/01 00:37:26;;;;;;;;;;;;;;;-0.37;100.00;95493.09;1036038;28;20016;-65
2022/02/01 00:38:01;;;;;;;;;;;;;;;-0.36;100.00;95499.81;1035538;28;19985;-66
2022/02/01 00:38:42;;;;;;;;;;;;;;;-0.35;100.00;95498.81;1035661;28;19918;-65
2022/02/01 00:39:14;;;;;;;;;;;;;;;-0.33;100.00;95499.44;1035611;28;19925;-65
2022/02/01 00:39:46;;;;;;;;;;;;;;;-0.31;100.00;95497.44;1035737;28;19921;-66
2022/02/01 00:40:16;;;;;;;;;;;;;;;-0.31;100.00;95500.00;1035911;28;19941;-66
2022/02/01 00:40:53;;;;;;;;;;;;;;;-0.32;100.00;95488.13;1035798;28;19922;-65
2022/02/01 00:41:28;;;;;;;;;;;;;;;-0.31;100.00;95502.56;1035680;28;19922;-65
2022/02/01 00:41:59;;;;;;;;;;;;;;;-0.29;100.00;95495.44;1031745;28;19918;-65
2022/02/01 00:42:29;;;;;;;;;;;;;;;-0.30;100.00;95493.09;1023295;29;19919;-66
2022/02/01 00:43:00;;;;;;;;;;;;;;;-0.32;100.00;95490.69;1023114;29;19929;-65
2022/02/01 00:43:31;;;;;;;;;;;;;;;-0.29;100.00;95500.59;1020350;29;19974;-66
2022/02/01 00:44:01;;;;;;;;;;;;;;;-0.30;100.00;95498.25;1023894;28;19925;-66
2022/02/01 00:44:32;;;;;;;;;;;;;;;-0.31;100.00;95496.63;1031696;28;19924;-68
2022/02/01 00:45:02;;;;;;;;;;;;;;;-0.30;100.00;95493.88;1031638;28;20400;-66
2022/02/01 00:45:33;;;;;;;;;;;;;;;-0.32;100.00;95488.13;1035597;28;19932;-65
2022/02/01 00:46:03;;;;;;;;;;;;;;;-0.29;100.00;95499.81;1035888;28;19965;-65
2022/02/01 00:46:34;;;;;;;;;;;;;;;-0.29;100.00;95490.28;1031566;28;19917;-65
2022/02/01 00:47:05;;;;;;;;;;;;;;;-0.27;100.00;95493.47;1024061;29;19923;-66
2022/02/01 00:47:35;;;;;;;;;;;;;;;-0.27;100.00;95490.06;1023673;29;19930;-65
2022/02/01 00:48:05;;;;;;;;;;;;;;;-0.25;100.00;95493.25;1015898;29;19911;-65
2022/02/01 00:48:36;;;;;;;;;;;;;;;-0.26;100.00;95495.06;1020166;29;19946;-65
2022/02/01 00:49:06;;;;;;;;;;;;;;;-0.24;100.00;95505.16;1023667;29;20292;-65
2022/02/01 00:49:37;;;;;;;;;;;;;;;-0.23;100.00;95499.03;1023861;28;19982;-65
2022/02/01 00:50:11;;;;;;;;;;;;;;;-0.24;100.00;95498.19;1033173;28;19932;-66
2022/02/01 00:50:41;;;;;;;;;;;;;;;-0.26;100.00;95500.22;1031261;28;19928;-65
2022/02/01 00:51:12;;;;;;;;;;;;;;;-0.22;100.00;95507.53;1030953;28;19921;-66
2022/02/01 00:51:43;;;;;;;;;;;;;;;-0.21;100.00;95498.81;1031291;28;19914;-66
2022/02/01 00:52:13;;;;;;;;;;;;;;;-0.18;100.00;95501.00;1031788;28;19906;-66
2022/02/01 00:52:44;;;;;;;;;;;;;;;-0.38;100.00;95480.38;1039253;28;19905;-66
2022/02/01 00:53:14;;;;;;;;;;;;;;;-0.18;100.00;95508.72;1038794;28;19909;-66
2022/02/01 00:53:44;;;;;;;;;;;;;;;-0.18;100.00;95516.47;1039075;28;19920;-65
2022/02/01 00:54:15;;;;;;;;;;;;;;;-0.11;100.00;95504.34;1035586;28;19910;-66
2022/02/01 00:54:46;;;;;;;;;;;;;;;-0.11;100.00;95504.34;1034038;28;19981;-67
2022/02/01 00:55:16;;;;;;;;;;;;;;;-0.12;100.00;95505.34;1035740;28;19913;-67
2022/02/01 00:55:46;;;;;;;;;;;;;;;-0.14;100.00;95504.75;1028794;28;20041;-66
2022/02/01 00:56:18;;;;;;;;;;;;;;;-0.15;100.00;95490.28;1032114;28;19921;-66
2022/02/01 00:56:48;;;;;;;;;;;;;;;-0.17;100.00;95507.72;1027960;28;20513;-66
2022/02/01 00:57:18;;;;;;;;;;;;;;;-0.15;100.00;95487.69;1024082;28;19961;-66
2022/02/01 00:57:49;;;;;;;;;;;;;;;-0.13;100.00;95508.94;1027902;28;19914;-66
2022/02/01 00:58:19;;;;;;;;;;;;;;;-0.14;100.00;95507.31;1027568;28;19925;-66
2022/02/01 00:58:49;;;;;;;;;;;;;;;-0.15;100.00;95490.28;1027803;28;19981;-66
2022/02/01 00:59:20;;;;;;;;;;;;;;;-0.15;100.00;95495.44;1031958;28;19993;-66
2022/02/01 00:59:50;;;;;;;;;;;;;;;-0.14;100.00;95502.16;1027544;28;19924;-66
2022/02/01 01:00:20;;;;;;;;;;;;;;;-0.13;100.00;95504.56;1031713;28;19913;-66
2022/02/01 01:00:51;;;;;;;;;;;;;;;-0.12;100.00;95495.03;1031934;28;19914;-66
2022/02/01 01:01:21;;;;;;;;;;;;;;;-0.13;100.00;95501.97;1031652;28;20503;-65
2022/02/01 01:01:51;;;;;;;;;;;;;;;-0.11;100.00;95491.44;1035709;28;19913;-65
2022/02/01 01:02:22;;;;;;;;;;;;;;;-0.10;100.00;95498.19;1035614;28;19917;-65
2022/02/01 01:02:52;;;;;;;;;;;;;;;-0.11;100.00;95506.91;1034844;28;19913;-66
2022/02/01 01:03:22;;;;;;;;;;;;;;;-0.09;100.00;95497.22;1035915;28;19975;-66
2022/02/01 01:03:53;;;;;;;;;;;;;;;-0.10;100.00;95503.34;1035831;28;19921;-65
2022/02/01 01:04:23;;;;;;;;;;;;;;;-0.09;100.00;95515.25;1035539;28;19953;-65
2022/02/01 01:04:53;;;;;;;;;;;;;;;-0.06;100.00;95504.53;1031640;28;19958;-66
2022/02/01 01:05:23;;;;;;;;;;;;;;;-0.06;100.00;95499.38;1031552;28;19917;-65
2022/02/01 01:05:54;;;;;;;;;;;;;;;-0.08;100.00;95506.53;1031824;28;20599;-66
2022/02/01 01:06:25;;;;;;;;;;;;;;;-0.07;100.00;95498.59;1031526;28;19945;-66
2022/02/01 01:06:56;;;;;;;;;;;;;;;-0.07;100.00;95495.19;1034829;28;20007;-66
2022/02/01 01:07:26;;;;;;;;;;;;;;;-0.08;100.00;95506.53;1036037;28;19979;-66
2022/02/01 01:07:56;;;;;;;;;;;;;;;-0.07;100.00;95500.38;1035691;28;19913;-66
2022/02/01 01:08:27;;;;;;;;;;;;;;;-0.06;100.00;95505.34;1035297;28;19944;-66
2022/02/01 01:08:57;;;;;;;;;;;;;;;-0.03;100.00;95502.34;1035814;28;20000;-65
2022/02/01 01:09:27;;;;;;;;;;;;;;;0.00;100.00;95503.75;1035594;28;19905;-65
2022/02/01 01:09:58;;;;;;;;;;;;;;;0.00;100.00;95503.75;1035642;28;19917;-65
2022/02/01 01:10:29;;;;;;;;;;;;;;;-0.01;100.00;95496.97;1031517;28;19914;-65
2022/02/01 01:10:59;;;;;;;;;;;;;;;0.00;100.00;95501.16;1031574;28;19922;-65
2022/02/01 01:11:30;;;;;;;;;;;;;;;-0.02;100.00;95503.13;1031732;28;20679;-65
2022/02/01 01:12:00;;;;;;;;;;;;;;;-0.02;100.00;95516.81;1027525;28;19949;-66
2022/02/01 01:12:33;;;;;;;;;;;;;;;0.01;100.00;95510.47;1031112;28;19914;-65
2022/02/01 01:15:02;;;;;;;;;;;;;;;0.05;100.00;95521.97;1031874;28;20416;-66
2022/02/01 01:15:31;;;;;;;;;;;;;;;0.07;100.00;95521.75;1029433;28;20356;-65
2022/02/01 01:16:17;;;;;;;;;;;;;;;0.06;100.00;95531.28;1031733;28;19918;-65
2022/02/01 01:43:57;;;;;;;;;;;;;;;0.21;100.00;95567.97;1031810;28;19926;-66
2022/02/01 01:44:30;;;;;;;;;;;;;;;0.23;100.00;95578.09;1027512;28;20354;-67
2022/02/01 01:45:14;;;;;;;;;;;;;;;0.23;100.00;95573.75;1026809;28;20041;-65
2022/02/01 01:53:11;;;;;;;;;;;;;;;0.33;100.00;95575.09;1022692;29;20451;-65
2022/02/01 01:53:38;;;;;;;;;;;;;;;0.32;100.00;95584.63;1019616;28;19997;-67
2022/02/01 01:54:08;;;;;;;;;;;;;;;0.33;100.00;95585.41;1032034;28;19922;-66
2022/02/01 01:54:38;;;;;;;;;;;;;;;0.31;100.00;95585.63;1026009;28;20388;-66
2022/02/01 01:55:10;;;;;;;;;;;;;;;0.28;100.00;95587.81;1022755;28;19958;-63
2022/02/01 01:55:41;;;;;;;;;;;;;;;0.30;100.00;95586.59;1026694;28;19969;-67
2022/02/01 01:56:11;;;;;;;;;;;;;;;0.29;100.00;95589.41;1023895;28;19919;-68
2022/02/01 01:56:42;;;;;;;;;;;;;;;0.29;100.00;95585.03;1027831;28;19914;-67
2022/02/01 01:57:12;;;;;;;;;;;;;;;0.31;100.00;95592.59;1027564;28;19914;-67
2022/02/01 01:57:42;;;;;;;;;;;;;;;0.32;100.00;95594.16;1027771;28;19925;-66
2022/02/01 01:58:13;;;;;;;;;;;;;;;0.32;100.00;95589.78;1027873;28;20351;-67
2022/02/01 01:58:43;;;;;;;;;;;;;;;0.31;100.00;95602.91;1031774;28;19921;-65
2022/02/01 01:59:13;;;;;;;;;;;;;;;0.33;100.00;95596.53;1027912;28;19922;-66
2022/02/01 01:59:44;;;;;;;;;;;;;;;0.35;100.00;95593.75;1023628;28;19961;-66
2022/02/01 02:00:31;;;;;;;;;;;;;;;0.33;100.00;95595.72;1019794;29;20377;-66
2022/02/01 02:01:11;;;;;;;;;;;;;;;0.31;100.00;95598.53;1019648;29;19921;-66
2022/02/01 02:01:41;;;;;;;;;;;;;;;0.31;100.00;95600.31;1019536;29;20349;-65
2022/02/01 02:02:12;;;;;;;;;;;;;;;0.29;100.00;95599.72;1027976;28;19914;-66
2022/02/01 02:02:42;;;;;;;;;;;;;;;0.30;100.00;95598.72;1027160;28;20392;-66
2022/02/01 02:03:12;;;;;;;;;;;;;;;0.27;100.00;95601.69;1027279;28;19926;-66
2022/02/01 02:03:43;;;;;;;;;;;;;;;0.26;100.00;95610.44;1023992;29;20312;-66
2022/02/01 02:04:14;;;;;;;;;;;;;;;0.25;100.00;95603.69;1023899;28;19919;-66
2022/02/01 02:04:44;;;;;;;;;;;;;;;0.26;100.00;95600.13;1027852;28;19922;-65
2022/02/01 02:05:14;;;;;;;;;;;;;;;0.31;100.00;95597.75;1031603;28;19922;-65
2022/02/01 02:05:45;;;;;;;;;;;;;;;0.31;100.00;95602.91;1027425;28;20371;-65
2022/02/01 02:06:16;;;;;;;;;;;;;;;0.32;100.00;95618.16;1023977;29;19922;-66
2022/02/01 02:06:46;;;;;;;;;;;;;;;0.30;100.00;95611.63;1025458;28;19918;-65
2022/02/01 02:07:17;;;;;;;;;;;;;;;0.28;100.00;95611.03;1031776;28;19940;-63
2022/02/01 02:07:49;;;;;;;;;;;;;;;0.31;100.00;95619.16;1028198;28;19920;-65
2022/02/01 02:08:19;;;;;;;;;;;;;;;0.32;100.00;95625.13;1023522;28;20496;-65
2022/02/01 02:08:53;;;;;;;;;;;;;;;0.30;100.00;95625.31;1020072;29;19950;-66
2022/02/01 02:09:24;;;;;;;;;;;;;;;0.29;100.00;95617.78;1020391;29;19911;-65
2022/02/01 02:09:54;;;;;;;;;;;;;;;0.28;100.00;95618.78;1020769;28;19919;-65
2022/02/01 02:10:32;;;;;;;;;;;;;;;0.26;100.00;95615.59;1028411;28;19922;-66
2022/02/01 02:11:13;;;;;;;;;;;;;;;0.26;100.00;95626.72;1031479;28;20012;-65
2022/02/01 02:12:30;;;;;;;;;;;;;;;0.27;100.00;95627.50;1034356;28;19913;-65
2022/02/01 02:14:43;;;;;;;;;;;;;;;0.25;100.00;95630.28;1023751;29;20463;-65
2022/02/01 02:15:13;;;;;;;;;;;;;;;0.27;100.00;95632.66;1026148;28;20399;-65
2022/02/01 02:15:53;;;;;;;;;;;;;;;0.27;100.00;95632.66;1030557;28;19965;-65
2022/02/01 02:16:23;;;;;;;;;;;;;;;0.28;100.00;95632.47;1027444;28;19934;-65
2022/02/01 02:16:57;;;;;;;;;;;;;;;0.26;100.00;95631.06;1023900;28;20715;-66
2022/02/01 02:17:27;;;;;;;;;;;;;;;0.26;100.00;95634.44;1025397;28;19923;-65
2022/02/01 02:17:58;;;;;;;;;;;;;;;0.26;100.00;95636.25;1024052;28;20380;-63
2022/02/01 02:18:29;;;;;;;;;;;;;;;0.26;100.00;95634.44;1028470;28;19941;-65
2022/02/01 02:19:00;;;;;;;;;;;;;;;0.27;100.00;95630.06;1027478;28;19922;-65
2022/02/01 02:19:30;;;;;;;;;;;;;;;0.26;100.00;95639.59;1027871;28;20395;-66
2022/02/01 02:20:01;;;;;;;;;;;;;;;0.25;100.00;95634.66;1031772;28;19917;-65
2022/02/01 02:20:41;;;;;;;;;;;;;;;0.26;100.00;95631.06;1027666;28;19922;-65
2022/02/01 02:21:11;;;;;;;;;;;;;;;0.26;100.00;95638.81;1027561;28;20299;-64
2022/02/01 02:21:44;;;;;;;;;;;;;;;0.24;100.00;95644.19;1027597;28;19925;-65
2022/02/01 02:22:14;;;;;;;;;;;;;;;0.24;100.00;95649.34;1029320;28;19962;-65
2022/02/01 02:22:45;;;;;;;;;;;;;;;0.24;100.00;95649.34;1023665;28;19923;-62
2022/02/01 02:23:15;;;;;;;;;;;;;;;0.25;100.00;95644.97;1027313;28;19926;-65
2022/02/01 02:23:45;;;;;;;;;;;;;;;0.25;100.00;95644.97;1023739;29;20494;-65
2022/02/01 02:24:16;;;;;;;;;;;;;;;0.22;100.00;95649.53;1023741;29;19918;-65
2022/02/01 02:24:46;;;;;;;;;;;;;;;0.18;100.00;95660.47;1031638;28;19914;-65
2022/02/01 02:25:16;;;;;;;;;;;;;;;0.13;100.00;95644.78;1023575;29;19930;-66
2022/02/01 02:25:47;;;;;;;;;;;;;;;0.10;100.00;95652.91;1021446;29;19938;-65
2022/02/01 02:26:17;;;;;;;;;;;;;;;-0.02;100.00;95650.16;1023634;29;19918;-62
2022/02/01 02:26:52;;;;;;;;;;;;;;;-0.03;100.00;95656.31;1024192;28;20448;-65
2022/02/01 02:27:22;;;;;;;;;;;;;;;-0.02;100.00;95657.88;1031404;28;19945;-65
2022/02/01 02:27:53;;;;;;;;;;;;;;;-0.01;100.00;95659.47;1032585;28;20029;-64
2022/02/01 02:28:24;;;;;;;;;;;;;;;-0.02;100.00;95663.03;1035575;28;19918;-65
2022/02/01 02:28:54;;;;;;;;;;;;;;;-0.01;100.00;95667.19;1027421;28;19922;-65
2022/02/01 02:29:24;;;;;;;;;;;;;;;-0.03;100.00;95661.47;1027941;28;19921;-65
2022/02/01 02:29:55;;;;;;;;;;;;;;;-0.06;100.00;95667.81;1027553;28;19914;-65
2022/02/01 02:30:25;;;;;;;;;;;;;;;-0.06;100.00;95667.81;1027398;28;19922;-64
2022/02/01 02:30:55;;;;;;;;;;;;;;;-0.12;100.00;95668.59;1036086;28;19922;-64
2022/02/01 02:31:25;;;;;;;;;;;;;;;-0.14;100.00;95672.34;1031509;28;19920;-64
2022/02/01 02:31:56;;;;;;;;;;;;;;;-0.18;100.00;95666.00;1031766;28;19917;-65
2022/02/01 02:32:26;;;;;;;;;;;;;;;-0.18;100.00;95669.38;1031397;28;19946;-64
2022/02/01 02:33:04;;;;;;;;;;;;;;;-0.18;100.00;95673.72;1031123;28;19922;-63
2022/02/01 02:33:35;;;;;;;;;;;;;;;-0.24;100.00;95668.34;1035950;28;19913;-65
2022/02/01 02:34:09;;;;;;;;;;;;;;;-0.25;100.00;95674.50;1035409;28;19953;-65
2022/02/01 02:34:39;;;;;;;;;;;;;;;-0.25;100.00;95676.31;1039267;28;19917;-65
2022/02/01 02:35:09;;;;;;;;;;;;;;;-0.22;100.00;95675.13;1039737;28;19920;-64
2022/02/01 02:35:57;;;;;;;;;;;;;;;-0.19;100.00;95675.53;1037466;28;20551;-65
2022/02/01 02:36:28;;;;;;;;;;;;;;;-0.19;100.00;95674.72;1027866;28;19925;-65
2022/02/01 02:37:06;;;;;;;;;;;;;;;-0.19;100.00;95677.31;1027489;28;19934;-65
2022/02/01 02:37:36;;;;;;;;;;;;;;;-0.15;100.00;95686.25;1027960;28;20407;-65
2022/02/01 02:38:15;;;;;;;;;;;;;;;-0.12;100.00;95678.13;1032296;28;20005;-65
2022/02/01 02:40:03;;;;;;;;;;;;;;;-0.01;100.00;95680.09;1027563;28;20304;-65
2022/02/01 02:41:35;;;;;;;;;;;;;;;-0.01;100.00;95688.63;1031499;28;19949;-64
2022/02/01 02:45:15;;;;;;;;;;;;;;;0.04;100.00;95684.69;1035732;28;20008;-65
2022/02/01 02:45:45;;;;;;;;;;;;;;;0.03;100.00;95688.22;1031090;28;19918;-65
2022/02/01 02:46:22;;;;;;;;;;;;;;;0.04;100.00;95689.84;1027260;28;19922;-65
2022/02/01 02:46:53;;;;;;;;;;;;;;;0.05;100.00;95692.22;1027518;28;19906;-65
2022/02/01 02:47:23;;;;;;;;;;;;;;;0.05;100.00;95692.22;1027889;28;19991;-66
2022/02/01 02:47:54;;;;;;;;;;;;;;;0.08;100.00;95696.97;1024651;28;19918;-65
2022/02/01 02:48:24;;;;;;;;;;;;;;;0.10;100.00;95695.00;1023643;29;20332;-64
2022/02/01 02:48:54;;;;;;;;;;;;;;;0.08;100.00;95696.97;1023633;29;19922;-65
2022/02/01 02:49:25;;;;;;;;;;;;;;;0.10;100.00;95696.75;1023655;28;20020;-66
2022/02/01 02:49:55;;;;;;;;;;;;;;;0.10;100.00;95691.59;1031691;28;20627;-65
2022/02/01 02:50:25;;;;;;;;;;;;;;;0.11;100.00;95694.00;1023285;29;19938;-65
2022/02/01 02:50:56;;;;;;;;;;;;;;;0.11;100.00;95699.16;1023646;29;20691;-64
2022/02/01 02:51:26;;;;;;;;;;;;;;;0.13;100.00;95697.16;1023762;29;19925;-65
2022/02/01 02:51:57;;;;;;;;;;;;;;;0.13;100.00;95697.16;1023562;28;19965;-64
2022/02/01 02:52:27;;;;;;;;;;;;;;;0.12;100.00;95698.16;1035593;28;19910;-62
2022/02/01 02:52:57;;;;;;;;;;;;;;;0.12;100.00;95703.31;1026861;28;19914;-63
2022/02/01 02:53:27;;;;;;;;;;;;;;;0.14;100.00;95696.19;1023548;29;19919;-65
2022/02/01 02:53:58;;;;;;;;;;;;;;;0.18;100.00;95697.38;1023844;29;20017;-63
2022/02/01 02:54:28;;;;;;;;;;;;;;;0.20;100.00;95707.47;1022949;28;19934;-64
2022/02/01 02:54:58;;;;;;;;;;;;;;;0.18;100.00;95702.53;1025852;28;19922;-64
2022/02/01 02:55:31;;;;;;;;;;;;;;;0.21;100.00;95707.31;1031508;28;19926;-65
2022/02/01 02:56:05;;;;;;;;;;;;;;;0.18;100.00;95702.53;1031471;28;19922;-65
2022/02/01 02:56:35;;;;;;;;;;;;;;;0.18;100.00;95702.53;1032598;28;19922;-64
2022/02/01 02:57:06;;;;;;;;;;;;;;;0.17;100.00;95711.28;1035527;28;20326;-65
2022/02/01 02:57:36;;;;;;;;;;;;;;;0.14;100.00;95706.50;1035708;28;19918;-65
2022/02/01 02:58:07;;;;;;;;;;;;;;;0.14;100.00;95706.50;1034726;28;20306;-64
2022/02/01 02:58:37;;;;;;;;;;;;;;;0.16;100.00;95707.09;1029003;28;19922;-62
2022/02/01 02:59:07;;;;;;;;;;;;;;;0.14;100.00;95703.94;1024740;28;20372;-65
2022/02/01 02:59:37;;;;;;;;;;;;;;;0.15;100.00;95702.94;1026978;28;20459;-64
2022/02/01 03:00:08;;;;;;;;;;;;;;;0.15;100.00;95707.28;1022697;29;19922;-65
2022/02/01 03:00:38;;;;;;;;;;;;;;;0.13;100.00;95710.06;1023154;28;20395;-63
2022/02/01 03:01:08;;;;;;;;;;;;;;;0.13;100.00;95709.28;1026950;28;19925;-65
2022/02/01 03:01:40;;;;;;;;;;;;;;;0.14;100.00;95716.03;1026840;28;19945;-65
2022/02/01 03:02:10;;;;;;;;;;;;;;;0.13;100.00;95709.28;1031469;28;19914;-66
2022/02/01 03:02:40;;;;;;;;;;;;;;;0.13;100.00;95710.06;1029835;28;19992;-63
2022/02/01 03:03:10;;;;;;;;;;;;;;;0.12;100.00;95725.75;1030197;28;20343;-65
2022/02/01 03:03:41;;;;;;;;;;;;;;;0.11;100.00;95721.59;1023090;29;19923;-65
2022/02/01 03:04:11;;;;;;;;;;;;;;;0.11;100.00;95722.38;1021524;29;19922;-63
2022/02/01 03:04:41;;;;;;;;;;;;;;;0.14;100.00;95726.34;1030670;28;20435;-65
2022/02/01 03:05:12;;;;;;;;;;;;;;;0.12;100.00;95736.84;1030715;28;19918;-65
2022/02/01 03:05:42;;;;;;;;;;;;;;;0.13;100.00;95724.75;1034827;28;19952;-65
2022/02/01 03:06:12;;;;;;;;;;;;;;;0.13;100.00;95735.84;1031251;28;20498;-64
2022/02/01 03:06:43;;;;;;;;;;;;;;;0.12;100.00;95729.13;1030731;28;19925;-65
2022/02/01 03:07:13;;;;;;;;;;;;;;;0.11;100.00;95724.97;1030987;28;19964;-64
2022/02/01 03:07:43;;;;;;;;;;;;;;;0.11;100.00;95743.00;1027124;28;19968;-65
2022/02/01 03:08:14;;;;;;;;;;;;;;;0.10;100.00;95741.44;1030939;28;19914;-63
2022/02/01 03:08:44;;;;;;;;;;;;;;;0.08;100.00;95747.78;1026755;28;19946;-64
2022/02/01 03:09:16;;;;;;;;;;;;;;;0.06;100.00;95742.78;1023113;29;19914;-65
2022/02/01 03:09:47;;;;;;;;;;;;;;;0.05;100.00;95746.38;1026987;28;19949;-63
2022/02/01 03:10:17;;;;;;;;;;;;;;;0.04;100.00;95751.75;1023378;28;19942;-63
2022/02/01 03:10:48;;;;;;;;;;;;;;;0.02;100.00;95744.19;1023019;28;19914;-64
2022/02/01 03:11:18;;;;;;;;;;;;;;;-0.02;100.00;95748.16;1026959;28;20386;-64
2022/02/01 03:11:49;;;;;;;;;;;;;;;-0.05;100.00;95759.66;1027280;28;19914;-67
2022/02/01 03:12:33;;;;;;;;;;;;;;;-0.05;100.00;95751.91;1023329;28;20501;-65
2022/02/01 03:13:39;;;;;;;;;;;;;;;-0.08;100.00;95756.66;1018840;29;19923;-65
2022/02/01 03:14:23;;;;;;;;;;;;;;;-0.07;100.00;95760.81;1019166;29;19915;-65
2022/02/01 03:15:07;;;;;;;;;;;;;;;-0.10;100.00;95756.06;1015242;29;20378;-65
2022/02/01 03:15:46;;;;;;;;;;;;;;;-0.18;100.00;95758.81;1019195;29;19951;-65
2022/02/01 03:17:01;;;;;;;;;;;;;;;-0.25;100.00;95758.81;1022910;29;19961;-65
2022/02/01 03:19:58;;;;;;;;;;;;;;;-0.31;100.00;95759.56;1028299;28;19921;-65
2022/02/01 03:20:28;;;;;;;;;;;;;;;-0.33;100.00;95757.19;1030712;28;19960;-65
2022/02/01 03:20:59;;;;;;;;;;;;;;;-0.35;100.00;95763.53;1034586;28;19917;-65
2022/02/01 03:21:29;;;;;;;;;;;;;;;-0.34;100.00;95760.75;1028515;28;20600;-65
2022/02/01 03:22:00;;;;;;;;;;;;;;;-0.34;100.00;95760.75;1022838;28;19918;-65
2022/02/01 03:22:31;;;;;;;;;;;;;;;-0.34;100.00;95763.31;1023264;29;19914;-65
2022/02/01 03:23:01;;;;;;;;;;;;;;;-0.33;100.00;95767.50;1021909;28;19921;-65
2022/02/01 03:23:31;;;;;;;;;;;;;;;-0.34;100.00;95760.75;1022884;28;19914;-65
2022/02/01 03:24:01;;;;;;;;;;;;;;;-0.33;100.00;95771.88;1031136;28;20013;-66
2022/02/01 03:24:32;;;;;;;;;;;;;;;-0.33;100.00;95774.47;1030927;28;19945;-65
2022/02/01 03:25:03;;;;;;;;;;;;;;;-0.34;100.00;95775.44;1026939;28;19921;-66
2022/02/01 03:25:33;;;;;;;;;;;;;;;-0.36;100.00;95770.47;1027047;28;19946;-65
2022/02/01 03:26:04;;;;;;;;;;;;;;;-0.34;100.00;95776.22;1026903;28;19939;-65
2022/02/01 03:26:34;;;;;;;;;;;;;;;-0.33;100.00;95777.81;1023375;28;19919;-64
2022/02/01 03:27:04;;;;;;;;;;;;;;;-0.33;100.00;95775.25;1022837;28;19921;-65
2022/02/01 03:27:35;;;;;;;;;;;;;;;-0.37;100.00;95779.22;1023002;29;19942;-65
2022/02/01 03:28:05;;;;;;;;;;;;;;;-0.36;100.00;95783.38;1023090;28;20010;-66
2022/02/01 03:28:35;;;;;;;;;;;;;;;-0.36;100.00;95778.22;1023044;28;19911;-65
2022/02/01 03:29:06;;;;;;;;;;;;;;;-0.35;100.00;95776.41;1022837;29;19978;-65
2022/02/01 03:29:36;;;;;;;;;;;;;;;-0.35;100.00;95784.94;1023259;29;19914;-65
2022/02/01 03:30:07;;;;;;;;;;;;;;;-0.35;100.00;95787.53;1019053;29;19970;-65
2022/02/01 03:30:37;;;;;;;;;;;;;;;-0.35;100.00;95786.72;1023199;28;20256;-65
2022/02/01 03:31:07;;;;;;;;;;;;;;;-0.35;100.00;95790.09;1023313;29;19925;-65
2022/02/01 03:31:37;;;;;;;;;;;;;;;-0.35;100.00;95792.69;1023016;29;19945;-65
2022/02/01 03:32:08;;;;;;;;;;;;;;;-0.34;100.00;95802.00;1022986;28;20019;-65
2022/02/01 03:32:38;;;;;;;;;;;;;;;-0.36;100.00;95798.03;1022645;29;19923;-63
2022/02/01 03:33:08;;;;;;;;;;;;;;;-0.35;100.00;95800.41;1022868;28;19984;-65
2022/02/01 03:33:39;;;;;;;;;;;;;;;-0.34;100.00;95807.16;1027395;28;20030;-65
2022/02/01 03:34:09;;;;;;;;;;;;;;;-0.35;100.00;95803.00;1030677;28;19916;-65
2022/02/01 03:34:39;;;;;;;;;;;;;;;-0.34;100.00;95801.19;1032143;28;19918;-65
2022/02/01 03:35:10;;;;;;;;;;;;;;;-0.34;100.00;95807.16;1039443;28;19913;-64
2022/02/01 03:35:40;;;;;;;;;;;;;;;-0.29;100.00;95797.06;1039101;28;19925;-65
2022/02/01 03:36:10;;;;;;;;;;;;;;;-0.29;100.00;95806.59;1037199;28;20464;-66
2022/02/01 03:36:41;;;;;;;;;;;;;;;-0.46;100.00;95777.78;1031041;28;19918;-65
2022/02/01 03:37:11;;;;;;;;;;;;;;;-0.28;100.00;95805.59;1030905;28;19910;-65
2022/02/01 03:37:41;;;;;;;;;;;;;;;-0.28;100.00;95811.53;1027099;28;20300;-65
2022/02/01 03:38:11;;;;;;;;;;;;;;;-0.28;100.00;95813.31;1027105;28;19918;-66
2022/02/01 03:38:42;;;;;;;;;;;;;;;-0.29;100.00;95812.53;1027116;28;19970;-64
2022/02/01 03:39:12;;;;;;;;;;;;;;;-0.29;100.00;95809.97;1023317;29;20432;-65
2022/02/01 03:39:43;;;;;;;;;;;;;;;-0.29;100.00;95804.81;1026769;28;19954;-64
2022/02/01 03:40:17;;;;;;;;;;;;;;;-0.26;100.00;95808.78;1027356;28;19965;-65
2022/02/01 03:40:47;;;;;;;;;;;;;;;-0.47;100.00;95781.31;1031608;28;19918;-66
2022/02/01 03:41:19;;;;;;;;;;;;;;;-0.27;100.00;95817.50;1030933;28;19937;-65
2022/02/01 03:41:50;;;;;;;;;;;;;;;-0.26;100.00;95821.69;1031120;28;19925;-65
2022/02/01 03:42:21;;;;;;;;;;;;;;;-0.27;100.00;95820.06;1030833;28;20430;-64
2022/02/01 03:42:51;;;;;;;;;;;;;;;-0.26;100.00;95816.53;1030574;28;19920;-65
2022/02/01 03:43:22;;;;;;;;;;;;;;;-0.27;100.00;95823.47;1022469;29;20027;-65
2022/02/01 03:43:52;;;;;;;;;;;;;;;-0.25;100.00;95826.63;1023022;29;19919;-65
2022/02/01 03:44:22;;;;;;;;;;;;;;;-0.26;100.00;95826.84;1015238;29;19927;-65
2022/02/01 03:44:52;;;;;;;;;;;;;;;-0.26;100.00;95824.25;1018747;29;19923;-66
2022/02/01 03:45:23;;;;;;;;;;;;;;;-0.26;100.00;95835.34;1022852;29;19926;-64
2022/02/01 03:45:53;;;;;;;;;;;;;;;-0.23;100.00;95829.03;1023233;28;19917;-65
2022/02/01 03:46:23;;;;;;;;;;;;;;;-0.24;100.00;95838.53;1026821;28;19953;-65
2022/02/01 03:47:01;;;;;;;;;;;;;;;-0.24;100.00;95842.88;1027093;28;19986;-65
2022/02/01 03:47:32;;;;;;;;;;;;;;;-0.23;100.00;95841.91;1027963;28;19950;-65
2022/02/01 03:48:02;;;;;;;;;;;;;;;-0.24;100.00;95838.53;1030887;28;19914;-65
2022/02/01 03:48:32;;;;;;;;;;;;;;;-0.22;100.00;95837.56;1023355;29;19957;-65
2022/02/01 03:49:03;;;;;;;;;;;;;;;-0.20;100.00;95838.13;1023109;28;20393;-66
2022/02/01 03:49:34;;;;;;;;;;;;;;;-0.20;100.00;95840.72;1026885;28;19922;-64
2022/02/01 03:50:06;;;;;;;;;;;;;;;-0.24;100.00;95846.25;1023389;28;19914;-64
2022/02/01 03:50:36;;;;;;;;;;;;;;;-0.21;100.00;95839.94;1029090;28;19925;-65
2022/02/01 03:51:06;;;;;;;;;;;;;;;-0.18;100.00;95843.91;1031131;28;19928;-65
2022/02/01 03:51:36;;;;;;;;;;;;;;;-0.21;100.00;95836.56;1030791;28;19977;-65
2022/02/01 03:52:07;;;;;;;;;;;;;;;-0.20;100.00;95843.28;1031102;28;19977;-65
2022/02/01 03:52:38;;;;;;;;;;;;;;;-0.20;100.00;95838.97;1031030;28;20379;-63
2022/02/01 03:53:09;;;;;;;;;;;;;;;-0.21;100.00;95837.34;1030291;28;19914;-64
2022/02/01 03:53:39;;;;;;;;;;;;;;;-0.20;100.00;95835.56;1031187;28;19918;-65
2022/02/01 03:54:09;;;;;;;;;;;;;;;-0.20;100.00;95838.97;1023412;28;19919;-65
2022/02/01 03:54:40;;;;;;;;;;;;;;;-0.37;100.00;95806.75;1027001;28;19922;-65
2022/02/01 03:55:10;;;;;;;;;;;;;;;-0.18;100.00;95836.19;1023050;29;19929;-66
2022/02/01 03:55:40;;;;;;;;;;;;;;;-0.19;100.00;95832.81;1019292;29;19934;-65
2022/02/01 03:56:11;;;;;;;;;;;;;;;-0.18;100.00;95838.75;1019180;29;19971;-65
2022/02/01 03:56:41;;;;;;;;;;;;;;;-0.17;100.00;95832.59;1019193;29;19919;-65
2022/02/01 03:57:15;;;;;;;;;;;;;;;-0.19;100.00;95832.03;1018979;29;19923;-66